createdAt,value
2019-04-05T00:00:18.008Z,46.08
2019-04-05T00:02:47.455Z,46.13
2019-04-05T00:05:17.087Z,46.23
2019-04-05T00:07:46.509Z,48.90
2019-04-05T00:10:16.012Z,47.95
2019-04-05T00:12:45.365Z,45.30
2019-04-05T00:15:16.133Z,47.98
2019-04-05T00:17:45.805Z,45.77
2019-04-05T00:20:15.805Z,49.80
2019-04-05T00:22:45.233Z,47.98
2019-04-05T00:25:14.666Z,49.73
2019-04-05T00:27:44.099Z,46.35
2019-04-05T00:30:14.313Z,49.38
2019-04-05T00:32:43.663Z,50.45
2019-04-05T00:35:13.147Z,50.05
2019-04-05T00:37:42.540Z,49.88
2019-04-05T00:40:12.420Z,49.65
2019-04-05T00:42:41.873Z,50.30
2019-04-05T00:45:11.365Z,49.45
2019-04-05T00:47:42.287Z,49.38
2019-04-05T00:50:12.096Z,46.90
2019-04-05T00:52:41.472Z,48.92
2019-04-05T00:55:12.435Z,47.32
2019-04-05T00:57:41.777Z,48.43
2019-04-05T01:00:11.669Z,48.58
2019-04-05T01:02:41.175Z,49.48
2019-04-05T01:05:10.919Z,48.77
2019-04-05T01:07:40.427Z,48.52
2019-04-05T01:10:10.215Z,50.80
2019-04-05T01:12:40.528Z,48.17
2019-04-05T01:15:11.940Z,49.38
2019-04-05T01:17:41.822Z,50.03
2019-04-05T01:20:11.450Z,50.70
2019-04-05T01:22:42.786Z,50.83
2019-04-05T01:25:13.827Z,51.48
2019-04-05T01:27:43.453Z,49.40
2019-04-05T01:30:14.503Z,49.53
2019-04-05T01:32:44.076Z,50.47
2019-04-05T01:35:13.494Z,51.42
2019-04-05T01:37:45.159Z,50.88
2019-04-05T01:40:14.751Z,50.03
2019-04-05T01:42:45.623Z,51.30
2019-04-05T01:45:15.618Z,49.48
2019-04-05T01:47:45.059Z,51.60
2019-04-05T01:50:15.172Z,50.43
2019-04-05T01:52:45.071Z,49.53
2019-04-05T01:55:14.579Z,51.35
2019-04-05T01:57:43.940Z,51.88
2019-04-05T02:00:14.496Z,52.40
2019-04-05T02:02:43.996Z,51.42
2019-04-05T02:05:14.276Z,52.10
2019-04-05T02:07:43.708Z,51.08
2019-04-05T02:10:13.616Z,50.67
2019-04-05T02:12:43.086Z,50.70
2019-04-05T02:15:18.055Z,51.37
2019-04-05T02:17:47.492Z,53.00
2019-04-05T02:20:17.063Z,51.05
2019-04-05T02:22:46.507Z,52.13
2019-04-05T02:25:15.989Z,50.93
2019-04-05T02:27:45.507Z,52.53
2019-04-05T02:30:16.661Z,49.85
2019-04-05T02:32:46.183Z,51.77
2019-04-05T02:35:16.153Z,50.28
2019-04-05T02:37:45.589Z,49.77
2019-04-05T02:40:16.661Z,54.10
2019-04-05T02:42:49.116Z,50.27
2019-04-05T02:45:21.445Z,50.67
2019-04-05T02:47:53.893Z,50.55
2019-04-05T02:50:26.332Z,50.35
2019-04-05T02:52:58.845Z,50.30
2019-04-05T02:55:29.427Z,50.05
2019-04-05T02:58:01.403Z,52.62
2019-04-05T03:00:32.262Z,50.60
2019-04-05T03:03:03.542Z,54.98
2019-04-05T03:05:33.123Z,48.20
2019-04-05T03:08:02.630Z,51.10
2019-04-05T03:10:56.177Z,50.65
2019-04-05T03:13:29.191Z,50.03
2019-04-05T03:16:02.293Z,50.52
2019-04-05T03:18:33.456Z,48.58
2019-04-05T03:21:06.235Z,48.80
2019-04-05T03:23:39.651Z,48.98
2019-04-05T03:26:13.139Z,49.67
2019-04-05T03:28:45.587Z,50.70
2019-04-05T03:31:15.099Z,47.48
2019-04-05T03:33:45.257Z,50.60
2019-04-05T03:36:14.755Z,50.88
2019-04-05T03:38:44.445Z,51.77
2019-04-05T03:41:14.652Z,50.90
2019-04-05T03:43:45.577Z,48.73
2019-04-05T03:46:16.401Z,49.45
2019-04-05T03:48:46.590Z,51.68
2019-04-05T03:51:16.310Z,50.47
2019-04-05T03:53:45.831Z,49.63
2019-04-05T03:56:15.328Z,51.48
2019-04-05T03:58:46.347Z,48.42
2019-04-05T04:01:15.856Z,48.50
2019-04-05T04:03:45.271Z,48.55
2019-04-05T04:06:15.135Z,48.87
2019-04-05T04:08:44.595Z,47.27
2019-04-05T04:11:14.344Z,48.92
2019-04-05T04:13:45.030Z,47.87
2019-04-05T04:16:14.545Z,50.70
2019-04-05T04:18:44.196Z,48.30
2019-04-05T04:21:22.541Z,50.65
2019-04-05T04:23:52.105Z,49.20
2019-04-05T04:26:22.436Z,48.90
2019-04-05T04:28:51.867Z,48.83
2019-04-05T04:31:22.127Z,51.95
2019-04-05T04:33:51.699Z,49.33
2019-04-05T04:36:22.001Z,49.15
2019-04-05T04:38:51.936Z,48.15
2019-04-05T04:41:22.024Z,48.20
2019-04-05T04:43:51.700Z,50.70
2019-04-05T04:46:21.489Z,48.90
2019-04-05T04:48:50.930Z,50.30
2019-04-05T04:51:20.724Z,50.30
2019-04-05T04:53:50.317Z,47.86
2019-04-05T04:56:20.034Z,49.17
2019-04-05T04:58:49.536Z,50.26
2019-04-05T05:01:20.661Z,52.78
2019-04-05T05:03:51.685Z,50.73
2019-04-05T05:06:21.207Z,47.75
2019-04-05T05:08:50.614Z,50.90
2019-04-05T05:11:20.129Z,50.08
2019-04-05T05:13:49.666Z,49.27
2019-04-05T05:16:19.453Z,52.43
2019-04-05T05:18:49.079Z,49.27
2019-04-05T05:21:18.520Z,48.70
2019-04-05T05:23:47.977Z,49.30
2019-04-05T05:26:17.640Z,49.48
2019-04-05T05:28:47.243Z,47.93
2019-04-05T05:31:16.601Z,49.25
2019-04-05T05:33:46.073Z,50.12
2019-04-05T05:36:15.673Z,49.80
2019-04-05T05:38:45.256Z,49.60
2019-04-05T05:41:15.745Z,48.00
2019-04-05T05:43:45.250Z,46.77
2019-04-05T05:46:14.733Z,48.73
2019-04-05T05:48:45.137Z,49.60
2019-04-05T05:51:15.764Z,49.83
2019-04-05T05:53:45.352Z,49.27
2019-04-05T05:56:14.725Z,49.70
2019-04-05T05:58:44.144Z,49.40
2019-04-05T06:01:13.518Z,50.13
2019-04-05T06:03:42.854Z,50.03
2019-04-05T06:06:12.200Z,49.23
2019-04-05T06:08:41.637Z,50.17
2019-04-05T06:11:10.986Z,46.20
2019-04-05T06:13:40.322Z,48.50
2019-04-05T06:16:09.764Z,48.90
2019-04-05T06:18:40.762Z,49.23
2019-04-05T06:21:10.196Z,47.38
2019-04-05T06:23:39.630Z,48.87
2019-04-05T06:26:09.064Z,47.62
2019-04-05T06:28:38.579Z,46.18
2019-04-05T06:31:08.027Z,47.45
2019-04-05T06:33:37.443Z,46.92
2019-04-05T06:36:07.352Z,45.83
2019-04-05T06:38:36.870Z,47.10
2019-04-05T06:41:06.285Z,46.90
2019-04-05T06:43:35.720Z,45.38
2019-04-05T06:46:05.867Z,48.60
2019-04-05T06:48:35.316Z,45.30
2019-04-05T06:51:05.651Z,44.48
2019-04-05T06:53:35.080Z,45.67
2019-04-05T06:56:05.487Z,46.33
2019-04-05T06:58:35.221Z,45.73
2019-04-05T07:01:05.384Z,44.88
2019-04-05T07:03:34.819Z,47.10
2019-04-05T07:06:04.314Z,42.17
2019-04-05T07:08:33.737Z,42.35
2019-04-05T07:11:03.123Z,42.13
2019-04-05T07:13:32.624Z,42.08
2019-04-05T07:16:02.157Z,41.65
2019-04-05T07:18:35.888Z,41.83
2019-04-05T07:21:02.705Z,38.30
2019-04-05T07:23:32.156Z,40.12
2019-04-05T07:26:02.216Z,40.83
2019-04-05T07:28:31.676Z,40.98
2019-04-05T07:31:01.026Z,41.77
2019-04-05T07:33:30.384Z,42.13
2019-04-05T07:36:03.316Z,40.50
2019-04-05T07:38:31.884Z,42.13
2019-04-05T07:41:01.297Z,40.35
2019-04-05T07:43:31.764Z,41.25
2019-04-05T07:46:01.136Z,41.60
2019-04-05T07:48:30.544Z,39.67
2019-04-05T07:50:59.993Z,39.80
2019-04-05T07:53:29.392Z,38.67
2019-04-05T07:55:59.722Z,38.75
2019-04-05T07:58:29.072Z,37.73
2019-04-05T08:00:58.444Z,37.00
2019-04-05T08:03:27.872Z,36.73
2019-04-05T08:05:57.230Z,36.58
2019-04-05T08:08:39.010Z,35.75
2019-04-05T08:11:08.869Z,33.67
2019-04-05T08:13:40.579Z,32.78
2019-04-05T08:16:10.064Z,32.55
2019-04-05T08:18:39.467Z,33.48
2019-04-05T08:21:08.822Z,32.05
2019-04-05T08:23:38.201Z,33.13
2019-04-05T08:26:07.618Z,32.55
2019-04-05T08:28:37.048Z,31.45
2019-04-05T08:31:10.447Z,31.17
2019-04-05T08:33:37.509Z,32.58
2019-04-05T08:36:06.958Z,30.97
2019-04-05T08:38:39.779Z,33.80
2019-04-05T08:41:08.643Z,31.95
2019-04-05T08:43:38.008Z,29.25
2019-04-05T08:46:07.435Z,25.00
2019-04-05T08:48:36.862Z,24.07
2019-04-05T08:51:06.305Z,22.53
2019-04-05T08:53:35.752Z,19.70
2019-04-05T08:56:07.357Z,19.62
2019-04-05T08:58:36.760Z,17.70
2019-04-05T09:01:06.171Z,15.30
2019-04-05T09:03:35.673Z,14.15
2019-04-05T09:06:05.211Z,14.28
2019-04-05T09:08:36.063Z,15.68
2019-04-05T09:13:34.577Z,16.05
2019-04-05T09:16:04.005Z,12.58
2019-04-05T09:18:33.453Z,14.07
2019-04-05T09:21:02.807Z,15.87
2019-04-05T09:23:32.332Z,16.57
2019-04-05T09:26:01.760Z,16.15
2019-04-05T09:28:31.195Z,12.05
2019-04-05T09:31:00.713Z,11.25
2019-04-05T09:33:30.144Z,9.53
2019-04-05T09:35:59.485Z,9.25
2019-04-05T09:38:30.405Z,10.85
2019-04-05T09:40:59.762Z,11.57
2019-04-05T09:43:29.195Z,10.03
2019-04-05T09:45:58.629Z,10.95
2019-04-05T09:48:27.993Z,10.68
2019-04-05T09:50:57.033Z,11.35
2019-04-05T09:53:27.919Z,11.25
2019-04-05T09:55:57.373Z,9.60
2019-04-05T09:58:26.820Z,8.88
2019-04-05T10:00:56.253Z,9.45
2019-04-05T10:03:25.901Z,10.32
2019-04-05T10:05:55.345Z,8.73
2019-04-05T10:08:24.715Z,10.17
2019-04-05T10:10:54.173Z,8.98
2019-04-05T10:13:23.675Z,9.03
2019-04-05T10:15:53.021Z,9.10
2019-04-05T10:18:24.365Z,9.20
2019-04-05T10:20:53.440Z,10.32
2019-04-05T10:23:22.821Z,9.68
2019-04-05T10:25:52.182Z,10.40
2019-04-05T10:28:21.550Z,10.25
2019-04-05T10:30:52.029Z,9.20
2019-04-05T10:33:21.691Z,10.13
2019-04-05T10:35:51.125Z,8.93
2019-04-05T10:38:20.499Z,7.95
2019-04-05T10:40:49.860Z,8.68
2019-04-05T10:43:19.242Z,7.83
2019-04-05T10:45:48.620Z,8.15
2019-04-05T10:48:18.063Z,8.28
2019-04-05T10:50:47.612Z,8.80
2019-04-05T10:53:18.661Z,8.58
2019-04-05T10:55:48.170Z,8.80
2019-04-05T10:58:17.704Z,8.10
2019-04-05T11:00:47.161Z,8.98
2019-04-05T11:03:16.958Z,9.80
2019-04-05T11:05:49.100Z,8.78
2019-04-05T11:08:17.366Z,8.47
2019-04-05T11:10:47.918Z,8.38
2019-04-05T11:13:17.275Z,8.15
2019-04-05T11:15:46.622Z,7.97
2019-04-05T11:18:16.001Z,7.67
2019-04-05T11:20:48.940Z,7.60
2019-04-05T11:23:16.424Z,8.50
2019-04-05T11:25:45.794Z,7.12
2019-04-05T11:28:15.235Z,7.55
2019-04-05T11:30:46.498Z,8.80
2019-04-05T11:33:19.252Z,8.25
2019-04-05T11:35:47.299Z,7.80
2019-04-05T11:38:17.817Z,8.35
2019-04-05T11:40:47.884Z,8.10
2019-04-05T11:43:19.153Z,8.93
2019-04-05T11:45:50.806Z,9.00
2019-04-05T11:48:19.894Z,8.70
2019-04-05T11:50:49.238Z,8.60
2019-04-05T11:53:21.784Z,9.83
2019-04-05T11:55:49.741Z,9.53
2019-04-05T11:58:19.177Z,9.57
2019-04-05T12:00:50.390Z,8.95
2019-04-05T12:03:21.416Z,10.07
2019-04-05T12:05:50.785Z,9.90
2019-04-05T12:08:20.149Z,9.83
2019-04-05T12:10:49.492Z,10.00
2019-04-05T12:13:19.936Z,9.70
2019-04-05T12:15:49.298Z,10.30
2019-04-05T12:18:19.723Z,11.53
2019-04-05T12:20:59.084Z,11.40
2019-04-05T12:23:20.469Z,11.93
2019-04-05T12:25:49.884Z,12.18
2019-04-05T12:28:19.271Z,11.10
2019-04-05T12:30:49.733Z,11.85
2019-04-05T12:33:19.648Z,11.30
2019-04-05T12:35:53.013Z,11.70
2019-04-05T12:38:34.014Z,12.20
2019-04-05T12:41:04.552Z,12.33
2019-04-05T12:43:34.076Z,12.75
2019-04-05T12:46:07.079Z,12.00
2019-04-05T12:48:36.536Z,12.07
2019-04-05T12:51:06.017Z,12.80
2019-04-05T12:53:35.377Z,12.73
2019-04-05T12:56:06.060Z,13.65
2019-04-05T12:58:35.484Z,12.68
2019-04-05T13:01:08.330Z,12.78
2019-04-05T13:03:36.933Z,13.55
2019-04-05T13:06:06.435Z,13.18
2019-04-05T13:08:35.793Z,14.13
2019-04-05T13:11:06.220Z,15.18
2019-04-05T13:13:35.644Z,14.18
2019-04-05T13:16:09.823Z,13.98
2019-04-05T13:18:37.192Z,14.23
2019-04-05T13:21:14.569Z,14.13
2019-04-05T13:23:37.808Z,13.97
2019-04-05T13:26:07.202Z,13.28
2019-04-05T13:28:36.648Z,13.48
2019-04-05T13:31:06.232Z,13.22
2019-04-05T13:33:35.676Z,12.50
2019-04-05T13:36:08.196Z,13.35
2019-04-05T13:38:36.336Z,15.00
2019-04-05T13:41:05.822Z,14.07
2019-04-05T13:43:52.838Z,12.93
2019-04-05T13:46:25.974Z,12.83
2019-04-05T13:48:54.628Z,12.50
2019-04-05T13:51:28.567Z,13.75
2019-04-05T13:53:55.061Z,13.07
2019-04-05T13:56:24.461Z,12.75
2019-04-05T13:58:53.837Z,12.20
2019-04-05T14:01:23.250Z,12.88
2019-04-05T14:03:52.628Z,12.37
2019-04-05T14:06:21.989Z,12.53
2019-04-05T14:08:51.381Z,12.00
2019-04-05T14:11:20.820Z,12.80
2019-04-05T14:13:50.212Z,12.18
2019-04-05T14:16:19.587Z,11.60
2019-04-05T14:18:50.623Z,11.45
2019-04-05T14:21:22.292Z,11.60
2019-04-05T14:23:53.285Z,12.33
2019-04-05T14:26:22.495Z,11.50
2019-04-05T14:28:53.113Z,11.35
2019-04-05T14:31:22.585Z,11.27
2019-04-05T14:33:54.214Z,11.18
2019-04-05T14:36:23.605Z,11.30
2019-04-05T14:38:53.127Z,11.80
2019-04-05T14:41:22.475Z,9.95
2019-04-05T14:43:52.940Z,8.50
2019-04-05T14:46:22.687Z,10.68
2019-04-05T14:48:52.071Z,11.28
2019-04-05T14:51:21.420Z,11.53
2019-04-05T14:53:50.771Z,12.47
2019-04-05T14:56:21.220Z,12.65
2019-04-05T14:58:50.576Z,11.80
2019-04-05T15:01:19.949Z,12.25
2019-04-05T15:03:49.537Z,11.85
2019-04-05T15:06:21.485Z,12.13
2019-04-05T15:08:52.295Z,11.18
2019-04-05T15:11:21.923Z,11.12
2019-04-05T15:13:51.395Z,12.25
2019-04-05T15:16:23.258Z,10.82
2019-04-05T15:18:53.003Z,11.38
2019-04-05T15:21:22.443Z,10.83
2019-04-05T15:23:51.831Z,10.70
2019-04-05T15:26:21.506Z,10.35
2019-04-05T15:28:54.739Z,10.20
2019-04-05T15:31:25.868Z,10.87
2019-04-05T15:33:53.125Z,11.00
2019-04-05T15:36:22.480Z,10.20
2019-04-05T15:38:51.920Z,10.10
2019-04-05T15:41:22.006Z,9.60
2019-04-05T15:43:53.163Z,9.33
2019-04-05T15:46:22.606Z,9.73
2019-04-05T15:48:52.455Z,9.38
2019-04-05T15:51:22.517Z,8.93
2019-04-05T15:53:53.101Z,8.90
2019-04-05T15:56:22.453Z,8.80
2019-04-05T15:58:52.521Z,8.78
2019-04-05T16:01:22.021Z,6.90
2019-04-05T16:03:51.375Z,7.80
2019-04-05T16:06:20.999Z,7.62
2019-04-05T16:08:51.521Z,7.83
2019-04-05T16:11:20.876Z,7.37
2019-04-05T16:13:50.262Z,7.65
2019-04-05T16:16:19.624Z,7.90
2019-04-05T16:18:49.046Z,7.35
2019-04-05T16:21:18.387Z,7.03
2019-04-05T16:23:47.775Z,7.80
2019-04-05T16:26:17.186Z,7.08
2019-04-05T16:28:46.561Z,6.55
2019-04-05T16:31:16.182Z,7.00
2019-04-05T16:33:45.584Z,6.75
2019-04-05T16:36:15.016Z,6.80
2019-04-05T16:38:44.367Z,6.55
2019-04-05T16:41:13.722Z,5.92
2019-04-05T16:43:44.812Z,6.58
2019-04-05T16:46:14.328Z,6.70
2019-04-05T16:48:43.812Z,7.10
2019-04-05T16:51:13.261Z,6.92
2019-04-05T16:54:01.940Z,7.70
2019-04-05T16:56:31.525Z,7.37
2019-04-05T16:59:01.024Z,7.53
2019-04-05T17:01:30.537Z,7.65
2019-04-05T17:03:59.891Z,7.97
2019-04-05T17:06:29.315Z,7.12
2019-04-05T17:08:58.695Z,7.35
2019-04-05T17:11:28.096Z,7.05
2019-04-05T17:13:59.577Z,6.53
2019-04-05T17:16:28.670Z,7.40
2019-04-05T17:18:58.113Z,7.33
2019-04-05T17:21:27.470Z,7.72
2019-04-05T17:23:57.050Z,7.03
2019-04-05T17:26:26.574Z,7.17
2019-04-05T17:28:56.092Z,6.97
2019-04-05T17:31:25.524Z,7.37
2019-04-05T17:33:55.017Z,6.90
2019-04-05T17:36:24.642Z,7.40
2019-04-05T17:38:54.193Z,6.60
2019-04-05T17:41:23.712Z,7.05
2019-04-05T17:43:53.144Z,8.23
2019-04-05T17:46:23.597Z,7.80
2019-04-05T17:48:53.067Z,7.97
2019-04-05T17:51:22.522Z,7.60
2019-04-05T17:53:52.101Z,7.95
2019-04-05T17:56:21.607Z,8.77
2019-04-05T17:58:51.340Z,8.80
2019-04-05T18:01:20.802Z,8.50
2019-04-05T18:03:50.139Z,9.30
2019-04-05T18:06:19.518Z,8.37
2019-04-05T18:08:49.004Z,8.65
2019-04-05T18:11:19.076Z,8.45
2019-04-05T18:13:48.762Z,8.58
2019-04-05T18:16:18.122Z,10.50
2019-04-05T18:18:47.581Z,10.82
2019-04-05T18:21:19.654Z,11.22
2019-04-05T18:23:49.122Z,10.48
2019-04-05T18:26:18.741Z,10.48
2019-04-05T18:28:49.256Z,10.98
2019-04-05T18:31:18.699Z,12.03
2019-04-05T18:33:49.755Z,10.20
2019-04-05T18:36:19.187Z,11.47
2019-04-05T18:38:48.568Z,10.85
2019-04-05T18:41:18.006Z,11.35
2019-04-05T18:43:48.315Z,11.45
2019-04-05T18:46:17.702Z,11.68
2019-04-05T18:48:47.073Z,12.23
2019-04-05T18:51:16.427Z,12.23
2019-04-05T18:53:45.902Z,12.13
2019-04-05T18:56:15.332Z,12.43
2019-04-05T18:58:44.791Z,13.98
2019-04-05T19:01:14.428Z,12.85
2019-04-05T19:03:44.075Z,13.38
2019-04-05T19:06:13.581Z,14.00
2019-04-05T19:08:44.078Z,13.45
2019-04-05T19:11:16.064Z,13.05
2019-04-05T19:13:45.442Z,13.30
2019-04-05T19:16:15.142Z,14.50
2019-04-05T19:18:47.314Z,14.13
2019-04-05T19:21:16.851Z,14.10
2019-04-05T19:23:51.191Z,13.95
2019-04-05T19:26:17.369Z,13.53
2019-04-05T19:28:46.737Z,12.75
2019-04-05T19:48:54.227Z,15.43
2019-04-05T19:51:24.729Z,14.93
2019-04-05T19:54:01.107Z,18.45
2019-04-05T19:56:26.381Z,17.27
2019-04-05T19:58:55.833Z,17.50
2019-04-05T20:01:25.321Z,17.82
2019-04-05T20:03:54.850Z,17.45
2019-04-05T20:06:24.316Z,17.15
2019-04-05T20:08:53.806Z,17.42
2019-04-05T20:11:23.386Z,17.52
2019-04-05T20:13:56.762Z,19.45
2019-04-05T20:16:28.519Z,17.62
2019-04-05T20:18:57.464Z,17.93
2019-04-05T20:21:26.985Z,17.52
2019-04-05T20:23:56.585Z,18.65
2019-04-05T20:26:26.077Z,18.42
2019-04-05T20:28:55.929Z,18.92
2019-04-05T20:31:25.370Z,19.62
2019-04-05T20:33:54.882Z,19.55
2019-04-05T20:36:24.320Z,17.80
2019-04-05T20:38:53.714Z,18.90
2019-04-05T20:41:23.389Z,19.65
2019-04-05T20:43:56.310Z,20.90
2019-04-05T20:46:25.811Z,21.45
2019-04-05T20:48:55.330Z,21.25
2019-04-05T20:51:24.802Z,20.92
2019-04-05T20:53:54.263Z,21.57
2019-04-05T20:56:23.784Z,21.55
2019-04-05T20:58:53.173Z,21.73
2019-04-05T21:01:22.552Z,21.60
2019-04-05T21:03:54.570Z,22.65
2019-04-05T21:06:23.999Z,22.73
2019-04-05T21:08:53.424Z,22.27
2019-04-05T21:11:22.856Z,23.27
2019-04-05T21:13:52.366Z,24.80
2019-04-05T21:16:21.823Z,24.47
2019-04-05T21:18:51.269Z,24.52
2019-04-05T21:21:20.694Z,24.65
2019-04-05T21:23:50.040Z,24.00
2019-04-05T21:26:19.596Z,24.50
2019-04-05T21:28:48.956Z,25.30
2019-04-05T21:31:18.443Z,23.75
2019-04-05T21:33:47.917Z,25.30
2019-04-05T21:36:17.489Z,25.60
2019-04-05T21:38:47.130Z,25.40
2019-04-05T21:41:16.712Z,25.87
2019-04-05T21:43:46.245Z,26.07
2019-04-05T21:46:15.877Z,26.90
2019-04-05T21:48:45.437Z,27.35
2019-04-05T21:51:14.826Z,25.95
2019-04-05T21:53:44.210Z,27.50
2019-04-05T21:56:13.722Z,27.98
2019-04-05T21:58:43.260Z,28.70
2019-04-05T22:01:12.819Z,27.70
2019-04-05T22:03:42.607Z,27.00
2019-04-05T22:06:12.209Z,28.47
2019-04-05T22:08:41.816Z,27.07
2019-04-05T22:11:11.355Z,26.60
2019-04-05T22:13:40.823Z,27.98
2019-04-05T22:16:10.546Z,27.18
2019-04-05T22:18:40.167Z,27.35
2019-04-05T22:21:09.632Z,27.65
2019-04-05T22:23:39.481Z,28.67
2019-04-05T22:26:10.006Z,27.98
2019-04-05T22:28:39.592Z,28.57
2019-04-05T22:31:09.053Z,27.67
2019-04-05T22:33:38.572Z,26.85
2019-04-05T22:36:08.119Z,28.20
2019-04-05T22:38:37.649Z,29.02
2019-04-05T22:41:07.200Z,27.77
2019-04-05T22:43:36.805Z,28.25
2019-04-05T22:46:06.408Z,30.17
2019-04-05T22:48:36.763Z,30.85
2019-04-05T22:51:06.221Z,32.00
2019-04-05T22:53:35.685Z,33.30
2019-04-05T22:56:05.709Z,33.08
2019-04-05T22:58:35.240Z,32.17
2019-04-05T23:01:05.783Z,34.45
2019-04-05T23:03:35.235Z,35.08
2019-04-05T23:06:07.016Z,36.13
2019-04-05T23:08:38.086Z,36.98
2019-04-05T23:11:08.938Z,39.37
2019-04-05T23:13:39.741Z,38.80
2019-04-05T23:16:10.585Z,41.30
2019-04-05T23:19:01.129Z,41.67
2019-04-05T23:21:33.283Z,40.78
2019-04-05T23:24:04.629Z,41.57
2019-04-05T23:26:35.559Z,44.13
2019-04-05T23:29:27.365Z,43.28
2019-04-05T23:31:58.535Z,43.40
2019-04-05T23:34:31.543Z,42.50
2019-04-05T23:37:02.429Z,43.42
2019-04-05T23:39:33.556Z,45.40
2019-04-05T23:42:04.058Z,46.67
2019-04-05T23:44:34.762Z,44.88
2019-04-05T23:47:06.533Z,47.47
2019-04-05T23:49:37.680Z,47.55
2019-04-05T23:52:08.433Z,48.20
2019-04-05T23:54:39.565Z,48.30
2019-04-05T23:57:10.403Z,50.63
2019-04-05T23:59:41.725Z,48.97
